createdAt,value
2023-02-05T00:00:10.159Z,1038.74
2023-02-05T00:00:39.713Z,1038.54
2023-02-05T00:01:12.496Z,1038.54
2023-02-05T00:01:43.732Z,1038.84
2023-02-05T00:02:16.640Z,1038.84
2023-02-05T00:02:47.582Z,1038.84
2023-02-05T00:03:20.656Z,1038.64
2023-02-05T00:03:51.651Z,1038.64
2023-02-05T00:04:24.809Z,1038.84
2023-02-05T00:04:55.640Z,1038.84
2023-02-05T00:05:28.891Z,1038.84
2023-02-05T00:05:59.884Z,1038.84
2023-02-05T00:06:32.242Z,1038.74
2023-02-05T00:07:03.942Z,1038.74
2023-02-05T00:07:36.876Z,1038.54
2023-02-05T00:08:07.543Z,1038.54
2023-02-05T00:08:40.334Z,1038.74
2023-02-05T00:09:11.755Z,1038.74
2023-02-05T00:09:44.595Z,1038.84
2023-02-05T00:10:15.891Z,1038.84
2023-02-05T00:10:48.618Z,1038.84
2023-02-05T00:11:19.802Z,1038.64
2023-02-05T00:11:52.285Z,1038.64
2023-02-05T00:12:23.722Z,1038.74
2023-02-05T00:12:56.443Z,1038.74
2023-02-05T00:13:27.801Z,1038.74
2023-02-05T00:14:00.645Z,1038.74
2023-02-05T00:14:31.746Z,1038.64
2023-02-05T00:15:06.106Z,1038.64
2023-02-05T00:15:36.082Z,1038.54
2023-02-05T00:16:08.551Z,1038.54
2023-02-05T00:16:40.008Z,1038.64
2023-02-05T00:17:12.722Z,1038.64
2023-02-05T00:17:43.713Z,1038.64
2023-02-05T00:18:16.665Z,1038.74
2023-02-05T00:18:47.827Z,1038.74
2023-02-05T00:19:21.359Z,1038.64
2023-02-05T00:19:51.639Z,1038.64
2023-02-05T00:20:24.922Z,1038.64
2023-02-05T00:20:55.890Z,1038.64
2023-02-05T00:21:28.593Z,1038.64
2023-02-05T00:21:59.781Z,1038.64
2023-02-05T00:22:32.661Z,1038.64
2023-02-05T00:23:03.624Z,1038.64
2023-02-05T00:23:37.796Z,1038.54
2023-02-05T00:24:07.792Z,1038.54
2023-02-05T00:24:40.654Z,1038.64
2023-02-05T00:25:12.066Z,1038.64
2023-02-05T00:25:44.521Z,1038.64
2023-02-05T00:26:15.777Z,1038.43
2023-02-05T00:26:49.298Z,1038.43
2023-02-05T00:27:19.671Z,1038.64
2023-02-05T00:27:52.919Z,1038.64
2023-02-05T00:28:23.573Z,1038.64
2023-02-05T00:28:56.482Z,1038.64
2023-02-05T00:29:27.838Z,1038.43
2023-02-05T00:30:02.277Z,1038.43
2023-02-05T00:30:32.021Z,1038.54
2023-02-05T00:31:04.727Z,1038.54
2023-02-05T00:31:36.017Z,1038.43
2023-02-05T00:32:08.799Z,1038.43
2023-02-05T00:32:39.738Z,1038.54
2023-02-05T00:33:12.505Z,1038.54
2023-02-05T00:33:43.544Z,1038.74
2023-02-05T00:34:16.315Z,1038.43
2023-02-05T00:34:47.717Z,1038.43
2023-02-05T00:35:21.036Z,1038.54
2023-02-05T00:35:51.708Z,1038.54
2023-02-05T00:36:24.503Z,1038.43
2023-02-05T00:36:55.915Z,1038.43
2023-02-05T00:37:28.542Z,1038.33
2023-02-05T00:37:59.727Z,1038.33
2023-02-05T00:38:32.595Z,1038.23
2023-02-05T00:39:03.778Z,1038.23
2023-02-05T00:39:36.691Z,1038.54
2023-02-05T00:40:07.970Z,1038.54
2023-02-05T00:40:40.566Z,1038.43
2023-02-05T00:41:11.732Z,1038.43
2023-02-05T00:41:44.514Z,1038.43
2023-02-05T00:42:15.805Z,1038.33
2023-02-05T00:42:48.462Z,1038.33
2023-02-05T00:43:19.666Z,1038.33
2023-02-05T00:43:52.521Z,1038.33
2023-02-05T00:44:23.862Z,1038.64
2023-02-05T00:44:56.564Z,1038.64
2023-02-05T00:45:28.952Z,1038.43
2023-02-05T00:46:00.911Z,1038.43
2023-02-05T00:46:31.634Z,1038.64
2023-02-05T00:47:04.541Z,1038.64
2023-02-05T00:47:35.712Z,1038.54
2023-02-05T00:48:08.521Z,1038.54
2023-02-05T00:48:39.714Z,1038.54
2023-02-05T00:49:12.454Z,1038.54
2023-02-05T00:49:43.801Z,1038.54
2023-02-05T00:50:16.730Z,1038.43
2023-02-05T00:50:47.705Z,1038.43
2023-02-05T00:51:20.607Z,1038.54
2023-02-05T00:51:51.829Z,1038.54
2023-02-05T00:52:24.592Z,1038.74
2023-02-05T00:52:55.747Z,1038.74
2023-02-05T00:53:28.522Z,1038.43
2023-02-05T00:53:59.676Z,1038.43
2023-02-05T00:54:32.555Z,1038.84
2023-02-05T00:55:04.108Z,1038.84
2023-02-05T00:55:36.806Z,1038.84
2023-02-05T00:56:07.613Z,1038.84
2023-02-05T00:56:40.493Z,1038.54
2023-02-05T00:57:11.828Z,1038.54
2023-02-05T00:57:44.439Z,1038.64
2023-02-05T00:58:15.755Z,1038.64
2023-02-05T00:58:48.676Z,1038.64
2023-02-05T00:59:19.786Z,1038.84
2023-02-05T00:59:52.346Z,1038.84
2023-02-05T01:00:24.793Z,1038.54
2023-02-05T01:00:56.651Z,1038.54
2023-02-05T01:01:27.631Z,1038.64
2023-02-05T01:02:00.523Z,1038.64
2023-02-05T01:02:31.829Z,1038.64
2023-02-05T01:03:04.574Z,1038.64
2023-02-05T01:03:35.805Z,1038.54
2023-02-05T01:04:08.690Z,1038.54
2023-02-05T01:04:39.820Z,1038.54
2023-02-05T01:05:12.644Z,1038.54
2023-02-05T01:05:43.737Z,1038.64
2023-02-05T01:06:16.490Z,1038.54
2023-02-05T01:06:47.808Z,1038.54
2023-02-05T01:07:20.434Z,1038.54
2023-02-05T01:07:51.968Z,1038.54
2023-02-05T01:08:24.638Z,1038.64
2023-02-05T01:08:55.695Z,1038.64
2023-02-05T01:09:28.423Z,1038.74
2023-02-05T01:09:59.825Z,1038.74
2023-02-05T01:10:32.884Z,1038.74
2023-02-05T01:11:03.831Z,1038.74
2023-02-05T01:11:36.734Z,1038.74
2023-02-05T01:12:07.800Z,1038.74
2023-02-05T01:12:40.418Z,1038.64
2023-02-05T01:13:11.752Z,1038.64
2023-02-05T01:13:44.496Z,1038.74
2023-02-05T01:14:15.836Z,1038.64
2023-02-05T01:14:48.458Z,1038.64
2023-02-05T01:15:20.816Z,1038.64
2023-02-05T01:15:52.914Z,1038.64
2023-02-05T01:16:23.687Z,1038.74
2023-02-05T01:16:56.621Z,1038.74
2023-02-05T01:17:27.794Z,1038.74
2023-02-05T01:18:00.534Z,1038.74
2023-02-05T01:18:31.808Z,1038.74
2023-02-05T01:19:04.512Z,1038.74
2023-02-05T01:19:35.872Z,1038.74
2023-02-05T01:20:08.457Z,1038.74
2023-02-05T01:20:39.773Z,1038.74
2023-02-05T01:21:12.564Z,1038.74
2023-02-05T01:21:43.633Z,1038.74
2023-02-05T01:22:16.519Z,1038.84
2023-02-05T01:22:47.820Z,1038.84
2023-02-05T01:23:20.670Z,1038.74
2023-02-05T01:23:51.632Z,1038.74
2023-02-05T01:24:24.487Z,1038.74
2023-02-05T01:24:55.892Z,1038.74
2023-02-05T01:25:28.764Z,1038.54
2023-02-05T01:25:59.597Z,1038.54
2023-02-05T01:26:32.644Z,1038.64
2023-02-05T01:27:03.726Z,1038.64
2023-02-05T01:27:36.573Z,1038.64
2023-02-05T01:28:07.933Z,1038.64
2023-02-05T01:28:40.708Z,1038.64
2023-02-05T01:29:11.676Z,1038.64
2023-02-05T01:29:44.556Z,1038.54
2023-02-05T01:30:16.645Z,1038.54
2023-02-05T01:30:48.948Z,1038.54
2023-02-05T01:31:19.680Z,1038.74
2023-02-05T01:31:52.639Z,1038.74
2023-02-05T01:32:23.768Z,1038.54
2023-02-05T01:32:56.729Z,1038.54
2023-02-05T01:33:27.695Z,1038.64
2023-02-05T01:34:00.621Z,1038.64
2023-02-05T01:34:31.837Z,1038.54
2023-02-05T01:35:04.762Z,1038.54
2023-02-05T01:35:36.130Z,1038.64
2023-02-05T01:36:08.569Z,1038.64
2023-02-05T01:36:39.698Z,1038.54
2023-02-05T01:36:56.113Z,1038.54
2023-02-05T01:37:27.764Z,1038.43
2023-02-05T01:37:59.624Z,1038.43
2023-02-05T01:38:32.635Z,1038.43
2023-02-05T01:39:03.920Z,1038.43
2023-02-05T01:39:37.793Z,1038.33
2023-02-05T01:40:08.007Z,1038.33
2023-02-05T01:40:41.464Z,1038.23
2023-02-05T01:41:11.740Z,1038.23
2023-02-05T01:41:44.770Z,1038.33
2023-02-05T01:42:15.731Z,1038.33
2023-02-05T01:42:48.702Z,1038.33
2023-02-05T01:43:19.618Z,1038.43
2023-02-05T01:43:52.744Z,1038.43
2023-02-05T01:44:23.842Z,1038.54
2023-02-05T01:44:59.680Z,1038.54
2023-02-05T01:45:28.802Z,1038.33
2023-02-05T01:46:00.803Z,1038.33
2023-02-05T01:46:31.914Z,1038.54
2023-02-05T01:47:04.730Z,1038.54
2023-02-05T01:47:35.789Z,1038.33
2023-02-05T01:48:08.689Z,1038.33
2023-02-05T01:48:39.652Z,1038.43
2023-02-05T01:49:12.478Z,1038.43
2023-02-05T01:49:43.854Z,1038.43
2023-02-05T01:50:16.917Z,1038.43
2023-02-05T01:50:47.792Z,1038.43
2023-02-05T01:51:20.603Z,1038.54
2023-02-05T01:51:51.830Z,1038.54
2023-02-05T01:52:24.519Z,1038.23
2023-02-05T01:52:55.838Z,1038.23
2023-02-05T01:53:28.655Z,1038.43
2023-02-05T01:53:59.863Z,1038.43
2023-02-05T01:54:32.658Z,1038.33
2023-02-05T01:55:04.130Z,1038.33
2023-02-05T01:55:38.597Z,1038.23
2023-02-05T01:56:07.739Z,1038.23
2023-02-05T01:56:40.486Z,1038.33
2023-02-05T01:57:11.890Z,1038.33
2023-02-05T01:57:44.636Z,1038.03
2023-02-05T01:58:15.732Z,1038.33
2023-02-05T01:58:48.532Z,1038.33
2023-02-05T01:59:19.848Z,1038.23
2023-02-05T01:59:52.522Z,1038.23
2023-02-05T02:00:25.026Z,1038.33
2023-02-05T02:00:56.835Z,1038.33
2023-02-05T02:01:27.752Z,1038.23
2023-02-05T02:02:00.604Z,1038.23
2023-02-05T02:02:31.879Z,1038.23
2023-02-05T02:03:04.716Z,1038.23
2023-02-05T02:03:35.702Z,1038.23
2023-02-05T02:04:08.641Z,1038.23
2023-02-05T02:04:39.819Z,1038.23
2023-02-05T02:05:13.154Z,1038.23
2023-02-05T02:05:43.777Z,1038.23
2023-02-05T02:06:16.860Z,1038.23
2023-02-05T02:06:47.766Z,1038.23
2023-02-05T02:07:20.792Z,1038.13
2023-02-05T02:07:52.042Z,1038.13
2023-02-05T02:08:24.584Z,1037.93
2023-02-05T02:08:55.836Z,1037.93
2023-02-05T02:09:28.692Z,1038.43
2023-02-05T02:09:59.927Z,1038.43
2023-02-05T02:10:32.909Z,1038.43
2023-02-05T02:11:03.780Z,1038.43
2023-02-05T02:11:36.775Z,1038.54
2023-02-05T02:12:07.674Z,1038.54
2023-02-05T02:12:40.798Z,1038.33
2023-02-05T02:13:11.907Z,1038.33
2023-02-05T02:13:44.631Z,1038.13
2023-02-05T02:14:15.706Z,1038.13
2023-02-05T02:14:48.534Z,1038.13
2023-02-05T02:15:20.904Z,1038.13
2023-02-05T02:15:52.767Z,1038.13
2023-02-05T02:16:23.876Z,1038.13
2023-02-05T02:16:56.566Z,1038.13
2023-02-05T02:17:27.825Z,1038.03
2023-02-05T02:18:00.649Z,1038.03
2023-02-05T02:18:31.853Z,1038.23
2023-02-05T02:19:04.635Z,1038.23
2023-02-05T02:19:35.667Z,1037.93
2023-02-05T02:20:08.912Z,1037.93
2023-02-05T02:20:39.857Z,1037.93
2023-02-05T02:21:12.844Z,1037.93
2023-02-05T02:21:43.705Z,1038.03
2023-02-05T02:22:16.742Z,1038.03
2023-02-05T02:22:47.822Z,1038.03
2023-02-05T02:23:20.542Z,1038.03
2023-02-05T02:23:51.696Z,1038.03
2023-02-05T02:24:24.619Z,1037.83
2023-02-05T02:24:55.905Z,1037.83
2023-02-05T02:25:29.027Z,1037.72
2023-02-05T02:25:59.842Z,1037.72
2023-02-05T02:26:33.656Z,1038.03
2023-02-05T02:27:03.654Z,1038.03
2023-02-05T02:27:36.800Z,1038.03
2023-02-05T02:28:07.769Z,1038.03
2023-02-05T02:28:40.779Z,1037.83
2023-02-05T02:29:11.680Z,1037.83
2023-02-05T02:29:44.777Z,1037.83
2023-02-05T02:30:16.840Z,1037.93
2023-02-05T02:30:49.656Z,1037.93
2023-02-05T02:31:19.830Z,1037.83
2023-02-05T02:31:52.599Z,1037.83
2023-02-05T02:32:23.917Z,1037.93
2023-02-05T02:32:56.844Z,1037.93
2023-02-05T02:33:27.790Z,1037.93
2023-02-05T02:34:00.668Z,1037.93
2023-02-05T02:34:31.771Z,1037.83
2023-02-05T02:35:04.916Z,1037.83
2023-02-05T02:35:36.172Z,1037.72
2023-02-05T02:36:10.733Z,1037.72
2023-02-05T02:36:39.896Z,1037.83
2023-02-05T02:37:12.902Z,1037.83
2023-02-05T02:37:43.802Z,1037.83
2023-02-05T02:38:16.565Z,1037.83
2023-02-05T02:38:47.819Z,1037.83
2023-02-05T02:39:20.736Z,1037.62
2023-02-05T02:39:51.697Z,1037.62
2023-02-05T02:40:24.882Z,1037.83
2023-02-05T02:40:56.012Z,1037.83
2023-02-05T02:41:28.696Z,1037.62
2023-02-05T02:41:59.769Z,1037.62
2023-02-05T02:42:32.831Z,1037.93
2023-02-05T02:43:03.874Z,1037.93
2023-02-05T02:43:36.710Z,1037.72
2023-02-05T02:44:07.675Z,1037.72
2023-02-05T02:44:40.600Z,1037.83
2023-02-05T02:45:12.797Z,1037.83
2023-02-05T02:45:44.595Z,1037.72
2023-02-05T02:46:15.770Z,1037.83
2023-02-05T02:46:48.802Z,1037.83
2023-02-05T02:47:19.654Z,1037.83
2023-02-05T02:47:52.688Z,1037.83
2023-02-05T02:48:23.849Z,1037.93
2023-02-05T02:48:58.210Z,1037.93
2023-02-05T02:49:27.757Z,1037.93
2023-02-05T02:50:00.979Z,1037.93
2023-02-05T02:50:31.939Z,1037.93
2023-02-05T02:51:04.614Z,1037.93
2023-02-05T02:51:35.805Z,1037.93
2023-02-05T02:52:08.762Z,1037.93
2023-02-05T02:52:39.881Z,1037.93
2023-02-05T02:53:14.603Z,1037.93
2023-02-05T02:53:43.882Z,1037.62
2023-02-05T02:54:16.770Z,1037.62
2023-02-05T02:54:47.690Z,1037.62
2023-02-05T02:55:21.004Z,1037.72
2023-02-05T02:55:51.885Z,1037.72
2023-02-05T02:56:24.776Z,1037.42
2023-02-05T02:56:55.788Z,1037.42
2023-02-05T02:57:28.731Z,1037.72
2023-02-05T02:57:59.866Z,1037.72
2023-02-05T02:58:32.638Z,1037.72
2023-02-05T02:59:03.736Z,1037.72
2023-02-05T02:59:36.792Z,1037.72
2023-02-05T03:00:09.225Z,1037.72
2023-02-05T03:00:41.042Z,1037.83
2023-02-05T03:01:11.987Z,1037.83
2023-02-05T03:01:52.429Z,1037.72
2023-02-05T03:02:15.803Z,1037.72
2023-02-05T03:02:54.447Z,1037.72
2023-02-05T03:03:19.862Z,1037.62
2023-02-05T03:03:51.992Z,1037.62
2023-02-05T03:04:24.682Z,1037.72
2023-02-05T03:04:55.926Z,1037.72
2023-02-05T03:05:28.960Z,1037.83
2023-02-05T03:05:59.753Z,1037.83
2023-02-05T03:06:32.532Z,1037.93
2023-02-05T03:07:04.058Z,1037.93
2023-02-05T03:07:37.041Z,1037.72
2023-02-05T03:08:07.693Z,1037.72
2023-02-05T03:08:40.598Z,1037.72
2023-02-05T03:09:12.121Z,1037.72
2023-02-05T03:09:44.496Z,1038.03
2023-02-05T03:10:16.141Z,1037.72
2023-02-05T03:10:49.820Z,1037.72
2023-02-05T03:11:19.727Z,1037.72
2023-02-05T03:11:52.595Z,1037.72
2023-02-05T03:12:23.953Z,1037.83
2023-02-05T03:12:57.853Z,1037.83
2023-02-05T03:13:27.854Z,1037.93
2023-02-05T03:14:00.786Z,1037.93
2023-02-05T03:14:32.000Z,1037.93
2023-02-05T03:15:05.881Z,1037.93
2023-02-05T03:15:36.220Z,1037.83
2023-02-05T03:16:08.764Z,1037.83
2023-02-05T03:16:39.698Z,1037.72
2023-02-05T03:17:12.577Z,1037.72
2023-02-05T03:17:43.770Z,1037.52
2023-02-05T03:18:16.703Z,1037.83
2023-02-05T03:18:47.702Z,1037.83
2023-02-05T03:19:20.621Z,1037.52
2023-02-05T03:19:51.769Z,1037.52
2023-02-05T03:20:24.884Z,1037.62
2023-02-05T03:20:55.801Z,1037.62
2023-02-05T03:21:28.533Z,1037.62
2023-02-05T03:21:59.797Z,1037.62
2023-02-05T03:22:32.707Z,1037.83
2023-02-05T03:23:03.810Z,1037.83
2023-02-05T03:23:36.844Z,1037.72
2023-02-05T03:24:07.808Z,1037.72
2023-02-05T03:24:40.691Z,1037.62
2023-02-05T03:25:12.064Z,1037.62
2023-02-05T03:25:44.637Z,1037.62
2023-02-05T03:26:15.894Z,1037.52
2023-02-05T03:26:48.672Z,1037.52
2023-02-05T03:27:19.885Z,1037.72
2023-02-05T03:27:53.013Z,1037.72
2023-02-05T03:28:23.840Z,1037.72
2023-02-05T03:28:56.730Z,1037.72
2023-02-05T03:29:27.874Z,1037.52
2023-02-05T03:30:02.074Z,1037.52
2023-02-05T03:30:32.043Z,1037.42
2023-02-05T03:31:04.851Z,1037.42
2023-02-05T03:31:35.774Z,1037.32
2023-02-05T03:32:08.590Z,1037.32
2023-02-05T03:32:39.883Z,1037.42
2023-02-05T03:33:12.782Z,1037.42
2023-02-05T03:33:43.685Z,1037.52
2023-02-05T03:34:16.579Z,1037.62
2023-02-05T03:34:47.934Z,1037.62
2023-02-05T03:35:21.043Z,1037.52
2023-02-05T03:35:51.760Z,1037.52
2023-02-05T03:36:24.665Z,1037.52
2023-02-05T03:36:55.716Z,1037.52
2023-02-05T03:37:28.604Z,1037.52
2023-02-05T03:37:59.881Z,1037.52
2023-02-05T03:38:33.494Z,1037.52
2023-02-05T03:39:03.697Z,1037.52
2023-02-05T03:39:36.821Z,1037.42
2023-02-05T03:40:08.057Z,1037.42
2023-02-05T03:40:40.605Z,1037.42
2023-02-05T03:41:11.774Z,1037.42
2023-02-05T03:41:44.811Z,1037.32
2023-02-05T03:42:15.934Z,1037.52
2023-02-05T03:42:48.852Z,1037.52
2023-02-05T03:43:19.872Z,1037.32
2023-02-05T03:43:52.797Z,1037.32
2023-02-05T03:44:23.725Z,1037.52
2023-02-05T03:44:56.692Z,1037.52
2023-02-05T03:45:29.077Z,1037.32
2023-02-05T03:46:01.037Z,1037.32
2023-02-05T03:46:31.889Z,1037.42
2023-02-05T03:47:05.024Z,1037.42
2023-02-05T03:47:35.868Z,1037.42
2023-02-05T03:48:08.512Z,1037.42
2023-02-05T03:48:39.878Z,1037.32
2023-02-05T03:49:12.690Z,1037.32
2023-02-05T03:49:43.938Z,1037.32
2023-02-05T03:50:16.855Z,1037.52
2023-02-05T03:50:47.845Z,1037.52
2023-02-05T03:51:20.893Z,1037.22
2023-02-05T03:51:51.729Z,1037.22
2023-02-05T03:52:24.848Z,1037.32
2023-02-05T03:52:55.820Z,1037.32
2023-02-05T03:53:28.864Z,1037.32
2023-02-05T03:53:59.823Z,1037.32
2023-02-05T03:54:32.806Z,1037.22
2023-02-05T03:55:04.200Z,1037.22
2023-02-05T03:55:42.201Z,1037.22
2023-02-05T03:56:07.833Z,1037.22
2023-02-05T03:56:39.928Z,1037.11
2023-02-05T03:57:12.848Z,1037.11
2023-02-05T03:57:43.733Z,1037.22
2023-02-05T03:58:16.625Z,1037.32
2023-02-05T03:58:47.862Z,1037.32
2023-02-05T03:59:20.600Z,1037.42
2023-02-05T03:59:51.808Z,1037.42
2023-02-05T04:00:25.822Z,1037.32
2023-02-05T04:00:56.114Z,1037.32
2023-02-05T04:01:28.796Z,1037.22
2023-02-05T04:01:59.917Z,1037.22
2023-02-05T04:02:32.809Z,1037.32
2023-02-05T04:03:03.813Z,1037.32
2023-02-05T04:03:36.974Z,1037.32
2023-02-05T04:04:07.811Z,1037.32
2023-02-05T04:04:40.641Z,1037.22
2023-02-05T04:05:12.169Z,1037.22
2023-02-05T04:05:44.446Z,1037.32
2023-02-05T04:06:15.826Z,1037.42
2023-02-05T04:06:48.604Z,1037.42
2023-02-05T04:07:19.805Z,1037.42
2023-02-05T04:07:53.131Z,1037.42
2023-02-05T04:08:23.746Z,1037.11
2023-02-05T04:08:56.859Z,1037.11
2023-02-05T04:09:27.848Z,1037.42
2023-02-05T04:10:01.015Z,1037.42
2023-02-05T04:10:31.758Z,1037.42
2023-02-05T04:11:04.712Z,1037.42
2023-02-05T04:11:35.943Z,1037.32
2023-02-05T04:12:08.533Z,1037.32
2023-02-05T04:12:39.687Z,1037.11
2023-02-05T04:13:13.912Z,1037.11
2023-02-05T04:13:43.712Z,1037.22
2023-02-05T04:14:16.535Z,1037.42
2023-02-05T04:14:47.751Z,1037.42
2023-02-05T04:15:21.569Z,1037.32
2023-02-05T04:15:51.833Z,1037.32
2023-02-05T04:16:24.846Z,1037.11
2023-02-05T04:16:55.885Z,1037.11
2023-02-05T04:17:28.635Z,1037.11
2023-02-05T04:17:59.741Z,1037.11
2023-02-05T04:18:32.569Z,1037.32
2023-02-05T04:19:03.722Z,1037.32
2023-02-05T04:19:36.703Z,1037.11
2023-02-05T04:20:08.133Z,1037.11
2023-02-05T04:20:40.720Z,1037.32
2023-02-05T04:21:11.803Z,1037.32
2023-02-05T04:21:44.601Z,1037.52
2023-02-05T04:22:15.919Z,1037.22
2023-02-05T04:22:48.666Z,1037.22
2023-02-05T04:23:19.718Z,1037.42
2023-02-05T04:23:52.856Z,1037.42
2023-02-05T04:24:23.904Z,1037.11
2023-02-05T04:24:56.763Z,1037.11
2023-02-05T04:25:28.210Z,1037.52
2023-02-05T04:26:00.641Z,1037.52
2023-02-05T04:26:31.747Z,1037.32
2023-02-05T04:27:04.747Z,1037.32
2023-02-05T04:27:35.939Z,1037.42
2023-02-05T04:28:08.791Z,1037.42
2023-02-05T04:28:39.725Z,1037.52
2023-02-05T04:29:13.331Z,1037.52
2023-02-05T04:29:43.818Z,1037.32
2023-02-05T04:30:18.436Z,1037.22
2023-02-05T04:30:48.002Z,1037.22
2023-02-05T04:31:20.742Z,1037.32
2023-02-05T04:31:52.020Z,1037.32
2023-02-05T04:32:24.537Z,1037.32
2023-02-05T04:32:55.899Z,1037.32
2023-02-05T04:33:28.701Z,1037.11
2023-02-05T04:33:59.750Z,1037.11
2023-02-05T04:34:36.652Z,1037.22
2023-02-05T04:35:04.208Z,1037.22
2023-02-05T04:35:36.331Z,1037.32
2023-02-05T04:36:07.735Z,1037.32
2023-02-05T04:36:39.840Z,1037.32
2023-02-05T04:37:11.853Z,1037.32
2023-02-05T04:37:43.727Z,1037.32
2023-02-05T04:38:16.829Z,1037.22
2023-02-05T04:38:47.880Z,1037.22
2023-02-05T04:39:20.670Z,1037.42
2023-02-05T04:39:51.764Z,1037.42
2023-02-05T04:40:24.955Z,1037.32
2023-02-05T04:40:56.025Z,1037.32
2023-02-05T04:41:28.584Z,1037.52
2023-02-05T04:41:59.737Z,1037.52
2023-02-05T04:42:32.922Z,1037.42
2023-02-05T04:43:03.948Z,1037.42
2023-02-05T04:43:37.116Z,1037.72
2023-02-05T04:44:07.866Z,1037.72
2023-02-05T04:44:40.692Z,1037.72
2023-02-05T04:45:12.764Z,1037.72
2023-02-05T04:45:44.994Z,1037.72
2023-02-05T04:46:15.946Z,1037.42
2023-02-05T04:46:48.896Z,1037.42
2023-02-05T04:47:19.729Z,1037.42
2023-02-05T04:47:52.753Z,1037.42
2023-02-05T04:48:23.981Z,1037.42
2023-02-05T04:48:56.636Z,1037.42
2023-02-05T04:49:27.818Z,1037.42
2023-02-05T04:50:01.333Z,1037.42
2023-02-05T04:50:31.886Z,1037.42
2023-02-05T04:51:04.688Z,1037.42
2023-02-05T04:51:35.813Z,1037.32
2023-02-05T04:52:09.580Z,1037.32
2023-02-05T04:52:39.713Z,1037.32
2023-02-05T04:53:12.735Z,1037.32
2023-02-05T04:53:43.887Z,1037.62
2023-02-05T04:54:16.974Z,1037.42
2023-02-05T04:54:47.788Z,1037.42
2023-02-05T04:55:21.106Z,1037.62
2023-02-05T04:55:51.836Z,1037.62
2023-02-05T04:56:24.677Z,1037.72
2023-02-05T04:56:55.812Z,1037.72
2023-02-05T04:57:28.780Z,1037.52
2023-02-05T04:57:59.910Z,1037.52
2023-02-05T04:58:32.659Z,1037.62
2023-02-05T04:59:03.834Z,1037.62
2023-02-05T04:59:36.763Z,1037.32
2023-02-05T05:00:08.972Z,1037.32
2023-02-05T05:00:43.722Z,1037.62
2023-02-05T05:01:11.946Z,1037.62
2023-02-05T05:01:44.620Z,1037.62
2023-02-05T05:02:15.880Z,1037.42
2023-02-05T05:02:48.818Z,1037.42
2023-02-05T05:03:19.918Z,1037.72
2023-02-05T05:03:52.562Z,1037.72
2023-02-05T05:04:23.833Z,1037.42
2023-02-05T05:04:56.861Z,1037.42
2023-02-05T05:05:28.048Z,1037.32
2023-02-05T05:06:00.908Z,1037.32
2023-02-05T05:06:31.818Z,1037.62
2023-02-05T05:07:05.047Z,1037.62
2023-02-05T05:07:35.730Z,1037.52
2023-02-05T05:08:08.712Z,1037.52
2023-02-05T05:08:39.933Z,1037.42
2023-02-05T05:09:12.543Z,1037.42
2023-02-05T05:09:43.750Z,1037.22
2023-02-05T05:10:17.066Z,1037.42
2023-02-05T05:10:47.716Z,1037.42
2023-02-05T05:11:21.509Z,1037.52
2023-02-05T05:11:51.792Z,1037.52
2023-02-05T05:12:25.931Z,1037.42
2023-02-05T05:12:55.730Z,1037.42
2023-02-05T05:13:28.659Z,1037.62
2023-02-05T05:13:59.917Z,1037.62
2023-02-05T05:14:32.584Z,1037.42
2023-02-05T05:15:05.072Z,1037.42
2023-02-05T05:15:37.573Z,1037.32
2023-02-05T05:16:07.981Z,1037.32
2023-02-05T05:16:40.718Z,1037.22
2023-02-05T05:17:11.813Z,1037.22
2023-02-05T05:17:44.772Z,1037.62
2023-02-05T05:18:15.662Z,1037.42
2023-02-05T05:18:48.623Z,1037.42
2023-02-05T05:19:19.833Z,1037.52
2023-02-05T05:19:52.742Z,1037.52
2023-02-05T05:20:24.084Z,1037.52
2023-02-05T05:20:56.659Z,1037.52
2023-02-05T05:21:27.899Z,1037.52
2023-02-05T05:22:00.641Z,1037.52
2023-02-05T05:22:31.865Z,1037.52
2023-02-05T05:23:04.786Z,1037.52
2023-02-05T05:23:35.976Z,1037.42
2023-02-05T05:24:08.486Z,1037.42
2023-02-05T05:24:39.814Z,1037.52
2023-02-05T05:25:12.912Z,1037.52
2023-02-05T05:25:43.718Z,1037.32
2023-02-05T05:26:16.589Z,1037.62
2023-02-05T05:26:47.809Z,1037.62
2023-02-05T05:27:20.628Z,1037.52
2023-02-05T05:27:51.770Z,1037.52
2023-02-05T05:28:24.578Z,1037.22
2023-02-05T05:28:55.880Z,1037.22
2023-02-05T05:29:28.478Z,1037.52
2023-02-05T05:29:59.792Z,1037.52
2023-02-05T05:30:33.932Z,1037.72
2023-02-05T05:31:03.954Z,1037.72
2023-02-05T05:31:36.671Z,1037.42
2023-02-05T05:32:07.836Z,1037.42
2023-02-05T05:32:40.903Z,1037.32
2023-02-05T05:33:11.741Z,1037.32
2023-02-05T05:33:44.491Z,1037.52
2023-02-05T05:34:15.856Z,1037.42
2023-02-05T05:34:48.681Z,1037.42
2023-02-05T05:35:20.057Z,1037.32
2023-02-05T05:35:52.594Z,1037.32
2023-02-05T05:36:23.883Z,1037.52
2023-02-05T05:36:56.615Z,1037.52
2023-02-05T05:37:27.827Z,1037.52
2023-02-05T05:38:00.616Z,1037.52
2023-02-05T05:38:32.018Z,1037.62
2023-02-05T05:39:04.601Z,1037.62
2023-02-05T05:39:35.789Z,1037.62
2023-02-05T05:40:08.800Z,1037.62
2023-02-05T05:40:39.704Z,1037.62
2023-02-05T05:41:12.648Z,1037.62
2023-02-05T05:41:43.987Z,1037.52
2023-02-05T05:42:16.512Z,1037.42
2023-02-05T05:42:47.730Z,1037.42
2023-02-05T05:43:21.682Z,1037.52
2023-02-05T05:43:51.959Z,1037.52
2023-02-05T05:44:24.581Z,1037.42
2023-02-05T05:44:55.833Z,1037.42
2023-02-05T05:45:29.938Z,1037.32
2023-02-05T05:45:59.899Z,1037.32
2023-02-05T05:46:32.509Z,1037.22
2023-02-05T05:47:03.929Z,1037.22
2023-02-05T05:47:37.745Z,1037.32
2023-02-05T05:48:07.755Z,1037.32
2023-02-05T05:48:40.759Z,1037.32
2023-02-05T05:49:11.907Z,1037.32
2023-02-05T05:49:44.714Z,1037.32
2023-02-05T05:50:16.111Z,1037.32
2023-02-05T05:50:49.487Z,1037.32
2023-02-05T05:51:19.946Z,1037.32
2023-02-05T05:51:53.306Z,1037.32
2023-02-05T05:52:23.828Z,1037.32
2023-02-05T05:52:56.776Z,1037.32
2023-02-05T05:53:27.934Z,1037.22
2023-02-05T05:54:00.685Z,1037.22
2023-02-05T05:54:31.943Z,1037.42
2023-02-05T05:55:04.851Z,1037.42
2023-02-05T05:55:36.007Z,1037.62
2023-02-05T05:56:08.580Z,1037.62
2023-02-05T05:56:39.839Z,1037.52
2023-02-05T05:57:12.836Z,1037.52
2023-02-05T05:57:43.764Z,1037.32
2023-02-05T05:58:16.618Z,1037.62
2023-02-05T05:58:47.912Z,1037.62
2023-02-05T05:59:20.536Z,1037.52
2023-02-05T05:59:51.854Z,1037.52
2023-02-05T06:00:25.942Z,1037.52
2023-02-05T06:00:55.862Z,1037.52
2023-02-05T06:01:28.572Z,1037.52
2023-02-05T06:01:59.932Z,1037.52
2023-02-05T06:02:32.763Z,1037.52
2023-02-05T06:03:03.839Z,1037.52
2023-02-05T06:03:36.425Z,1037.62
2023-02-05T06:04:07.912Z,1037.62
2023-02-05T06:04:40.721Z,1037.62
2023-02-05T06:05:12.104Z,1037.62
2023-02-05T06:05:44.654Z,1037.52
2023-02-05T06:06:15.922Z,1037.62
2023-02-05T06:06:48.596Z,1037.62
2023-02-05T06:07:19.807Z,1037.72
2023-02-05T06:07:52.958Z,1037.72
2023-02-05T06:08:23.776Z,1037.32
2023-02-05T06:08:56.568Z,1037.32
2023-02-05T06:09:27.916Z,1037.72
2023-02-05T06:10:01.281Z,1037.72
2023-02-05T06:10:31.815Z,1037.22
2023-02-05T06:11:04.451Z,1037.22
2023-02-05T06:11:35.974Z,1037.32
2023-02-05T06:12:10.067Z,1037.32
2023-02-05T06:12:39.799Z,1037.32
2023-02-05T06:13:12.673Z,1037.32
2023-02-05T06:13:44.039Z,1037.42
2023-02-05T06:14:16.594Z,1037.11
2023-02-05T06:14:47.855Z,1037.11
2023-02-05T06:15:21.881Z,1037.42
2023-02-05T06:15:51.857Z,1037.42
2023-02-05T06:16:24.571Z,1037.22
2023-02-05T06:16:55.964Z,1037.22
2023-02-05T06:17:28.612Z,1037.32
2023-02-05T06:17:59.802Z,1037.32
2023-02-05T06:18:32.565Z,1037.42
2023-02-05T06:19:03.937Z,1037.42
2023-02-05T06:19:36.675Z,1037.62
2023-02-05T06:20:07.972Z,1037.62
2023-02-05T06:20:40.651Z,1037.42
2023-02-05T06:21:12.051Z,1037.42
2023-02-05T06:21:44.567Z,1037.32
2023-02-05T06:22:15.907Z,1037.42
2023-02-05T06:22:48.774Z,1037.42
2023-02-05T06:23:19.859Z,1037.22
2023-02-05T06:23:52.712Z,1037.22
2023-02-05T06:24:23.956Z,1037.52
2023-02-05T06:24:56.934Z,1037.52
2023-02-05T06:25:28.197Z,1037.11
2023-02-05T06:26:01.591Z,1037.11
2023-02-05T06:26:31.974Z,1037.32